sensor_id;sensor_type;location;lat;lon;timestamp;pressure;altitude;pressure_sealevel;temperature;humidity
7532;BME280;3807;49.030;8.714;2023-05-23T00:01:24;99154.00;;;21.72;64.38
7532;BME280;3807;49.030;8.714;2023-05-23T00:03:50;99149.91;;;21.70;64.47
7532;BME280;3807;49.030;8.714;2023-05-23T00:06:19;99149.78;;;21.71;64.43
7532;BME280;3807;49.030;8.714;2023-05-23T00:08:47;99148.47;;;21.77;64.27
7532;BME280;3807;49.030;8.714;2023-05-23T00:11:13;99141.44;;;21.68;64.46
7532;BME280;3807;49.030;8.714;2023-05-23T00:13:38;99148.63;;;21.64;64.67
7532;BME280;3807;49.030;8.714;2023-05-23T00:16:05;99149.03;;;21.59;64.79
7532;BME280;3807;49.030;8.714;2023-05-23T00:18:34;99142.88;;;21.60;64.86
7532;BME280;3807;49.030;8.714;2023-05-23T00:20:59;99150.47;;;21.52;65.07
7532;BME280;3807;49.030;8.714;2023-05-23T00:23:26;99148.13;;;21.49;65.19
7532;BME280;3807;49.030;8.714;2023-05-23T00:25:54;99158.81;;;21.56;65.13
7532;BME280;3807;49.030;8.714;2023-05-23T00:28:20;99160.72;;;21.54;65.17
7532;BME280;3807;49.030;8.714;2023-05-23T00:30:46;99158.34;;;21.51;65.23
7532;BME280;3807;49.030;8.714;2023-05-23T00:33:13;99159.88;;;21.53;64.77
7532;BME280;3807;49.030;8.714;2023-05-23T00:35:39;99160.13;;;21.50;65.00
7532;BME280;3807;49.030;8.714;2023-05-23T00:38:05;99158.16;;;21.43;65.18
7532;BME280;3807;49.030;8.714;2023-05-23T00:40:32;99162.28;;;21.45;65.29
7532;BME280;3807;49.030;8.714;2023-05-23T00:42:57;99161.47;;;21.45;65.29
7532;BME280;3807;49.030;8.714;2023-05-23T00:45:23;99161.13;;;21.38;65.57
7532;BME280;3807;49.030;8.714;2023-05-23T00:47:48;99155.25;;;21.36;65.70
7532;BME280;3807;49.030;8.714;2023-05-23T00:50:15;99163.47;;;21.30;65.75
7532;BME280;3807;49.030;8.714;2023-05-23T00:52:41;99165.56;;;21.47;64.96
7532;BME280;3807;49.030;8.714;2023-05-23T00:55:08;99165.44;;;21.49;64.97
7532;BME280;3807;49.030;8.714;2023-05-23T00:57:35;99163.59;;;21.39;65.33
7532;BME280;3807;49.030;8.714;2023-05-23T01:00:07;99169.34;;;21.43;65.20
7532;BME280;3807;49.030;8.714;2023-05-23T01:02:39;99172.44;;;21.37;65.47
7532;BME280;3807;49.030;8.714;2023-05-23T01:05:08;99161.00;;;21.39;65.21
7532;BME280;3807;49.030;8.714;2023-05-23T01:07:34;99165.94;;;21.43;65.12
7532;BME280;3807;49.030;8.714;2023-05-23T01:10:00;99175.38;;;21.32;65.49
7532;BME280;3807;49.030;8.714;2023-05-23T01:12:40;99172.56;;;21.24;65.68
7532;BME280;3807;49.030;8.714;2023-05-23T01:15:13;99172.94;;;21.20;65.82
7532;BME280;3807;49.030;8.714;2023-05-23T01:17:51;99172.78;;;21.32;65.57
7532;BME280;3807;49.030;8.714;2023-05-23T01:20:24;99169.75;;;21.27;65.67
7532;BME280;3807;49.030;8.714;2023-05-23T01:28:04;99166.25;;;21.06;66.25
7532;BME280;3807;49.030;8.714;2023-05-23T01:30:34;99166.97;;;21.08;66.32
7532;BME280;3807;49.030;8.714;2023-05-23T01:33:02;99172.50;;;21.14;65.97
7532;BME280;3807;49.030;8.714;2023-05-23T01:35:29;99166.25;;;21.06;66.21
7532;BME280;3807;49.030;8.714;2023-05-23T01:37:55;99172.75;;;21.00;66.62
7532;BME280;3807;49.030;8.714;2023-05-23T01:40:22;99169.78;;;21.05;66.27
7532;BME280;3807;49.030;8.714;2023-05-23T01:42:48;99171.22;;;20.98;66.37
7532;BME280;3807;49.030;8.714;2023-05-23T01:45:14;99178.78;;;20.89;66.86
7532;BME280;3807;49.030;8.714;2023-05-23T01:47:40;99177.84;;;20.90;66.81
7532;BME280;3807;49.030;8.714;2023-05-23T01:50:07;99177.72;;;20.92;66.68
7532;BME280;3807;49.030;8.714;2023-05-23T01:52:34;99191.94;;;20.98;66.49
7532;BME280;3807;49.030;8.714;2023-05-23T01:55:00;99188.91;;;20.92;66.55
7532;BME280;3807;49.030;8.714;2023-05-23T01:57:28;99186.06;;;20.96;66.51
7532;BME280;3807;49.030;8.714;2023-05-23T01:59:54;99181.25;;;20.91;66.50
7532;BME280;3807;49.030;8.714;2023-05-23T02:02:20;99181.81;;;20.94;66.40
7532;BME280;3807;49.030;8.714;2023-05-23T02:04:48;99177.47;;;20.84;66.68
7532;BME280;3807;49.030;8.714;2023-05-23T02:07:13;99186.41;;;20.91;66.32
7532;BME280;3807;49.030;8.714;2023-05-23T02:09:38;99187.03;;;20.83;66.90
7532;BME280;3807;49.030;8.714;2023-05-23T02:12:04;99189.50;;;20.74;67.04
7532;BME280;3807;49.030;8.714;2023-05-23T02:14:30;99182.69;;;20.73;67.33
7532;BME280;3807;49.030;8.714;2023-05-23T02:16:55;99190.31;;;20.74;67.11
7532;BME280;3807;49.030;8.714;2023-05-23T02:19:20;99193.84;;;20.73;66.97
7532;BME280;3807;49.030;8.714;2023-05-23T02:21:45;99191.41;;;20.72;67.16
7532;BME280;3807;49.030;8.714;2023-05-23T02:24:11;99192.22;;;20.72;66.96
7532;BME280;3807;49.030;8.714;2023-05-23T02:26:36;99191.25;;;20.73;66.95
7532;BME280;3807;49.030;8.714;2023-05-23T02:29:02;99189.50;;;20.74;67.05
7532;BME280;3807;49.030;8.714;2023-05-23T02:31:27;99194.09;;;20.70;67.06
7532;BME280;3807;49.030;8.714;2023-05-23T02:33:53;99196.34;;;20.75;66.80
7532;BME280;3807;49.030;8.714;2023-05-23T02:36:18;99200.09;;;20.70;67.17
7532;BME280;3807;49.030;8.714;2023-05-23T02:38:43;99202.56;;;20.72;66.95
7532;BME280;3807;49.030;8.714;2023-05-23T02:41:09;99198.56;;;20.68;67.14
7532;BME280;3807;49.030;8.714;2023-05-23T02:43:34;99198.09;;;20.63;67.33
7532;BME280;3807;49.030;8.714;2023-05-23T02:46:00;99198.56;;;20.57;67.45
7532;BME280;3807;49.030;8.714;2023-05-23T02:48:25;99197.72;;;20.56;67.46
7532;BME280;3807;49.030;8.714;2023-05-23T02:50:50;99193.75;;;20.52;67.68
7532;BME280;3807;49.030;8.714;2023-05-23T02:53:16;99200.69;;;20.52;67.71
7532;BME280;3807;49.030;8.714;2023-05-23T02:55:42;99208.66;;;20.49;67.73
7532;BME280;3807;49.030;8.714;2023-05-23T02:58:07;99209.59;;;20.48;67.76
7532;BME280;3807;49.030;8.714;2023-05-23T03:00:33;99212.41;;;20.44;67.81
7532;BME280;3807;49.030;8.714;2023-05-23T03:02:58;99212.28;;;20.46;67.93
7532;BME280;3807;49.030;8.714;2023-05-23T03:05:24;99200.16;;;20.46;67.75
7532;BME280;3807;49.030;8.714;2023-05-23T03:07:49;99213.47;;;20.42;67.99
7532;BME280;3807;49.030;8.714;2023-05-23T03:10:16;99204.75;;;20.43;67.93
7532;BME280;3807;49.030;8.714;2023-05-23T03:12:41;99209.91;;;20.43;67.69
7532;BME280;3807;49.030;8.714;2023-05-23T03:15:08;99208.50;;;20.39;67.97
7532;BME280;3807;49.030;8.714;2023-05-23T03:17:33;99206.50;;;20.42;67.79
7532;BME280;3807;49.030;8.714;2023-05-23T03:19:59;99204.41;;;20.36;67.88
7532;BME280;3807;49.030;8.714;2023-05-23T03:22:24;99205.59;;;20.43;67.76
7532;BME280;3807;49.030;8.714;2023-05-23T03:24:50;99205.00;;;20.40;67.88
7532;BME280;3807;49.030;8.714;2023-05-23T03:27:15;99206.88;;;20.38;67.83
7532;BME280;3807;49.030;8.714;2023-05-23T03:29:40;99211.22;;;20.37;67.86
7532;BME280;3807;49.030;8.714;2023-05-23T03:32:06;99223.94;;;20.40;67.78
7532;BME280;3807;49.030;8.714;2023-05-23T03:34:31;99216.94;;;20.54;67.18
7532;BME280;3807;49.030;8.714;2023-05-23T03:36:58;99221.34;;;20.40;67.49
7532;BME280;3807;49.030;8.714;2023-05-23T03:39:23;99225.34;;;20.33;67.66
7532;BME280;3807;49.030;8.714;2023-05-23T03:41:49;99222.97;;;20.30;67.90
7532;BME280;3807;49.030;8.714;2023-05-23T03:44:14;99230.63;;;20.32;67.95
7532;BME280;3807;49.030;8.714;2023-05-23T03:46:40;99235.69;;;20.33;67.72
7532;BME280;3807;49.030;8.714;2023-05-23T03:49:05;99235.47;;;20.36;67.66
7532;BME280;3807;49.030;8.714;2023-05-23T03:51:30;99237.78;;;20.28;67.85
7532;BME280;3807;49.030;8.714;2023-05-23T03:53:56;99242.00;;;20.29;67.85
7532;BME280;3807;49.030;8.714;2023-05-23T03:56:21;99239.66;;;20.26;67.79
7532;BME280;3807;49.030;8.714;2023-05-23T03:58:47;99241.78;;;20.32;67.59
7532;BME280;3807;49.030;8.714;2023-05-23T04:01:12;99239.66;;;20.26;67.84
7532;BME280;3807;49.030;8.714;2023-05-23T04:03:38;99243.06;;;20.27;67.92
7532;BME280;3807;49.030;8.714;2023-05-23T04:06:03;99235.53;;;20.23;68.02
7532;BME280;3807;49.030;8.714;2023-05-23T04:08:29;99233.91;;;20.22;68.03
7532;BME280;3807;49.030;8.714;2023-05-23T04:10:58;99241.66;;;20.22;68.04
7532;BME280;3807;49.030;8.714;2023-05-23T04:13:23;99240.00;;;20.21;67.96
7532;BME280;3807;49.030;8.714;2023-05-23T04:15:50;99235.31;;;20.27;67.90
7532;BME280;3807;49.030;8.714;2023-05-23T04:18:16;99244.56;;;20.18;67.99
7532;BME280;3807;49.030;8.714;2023-05-23T04:20:42;99239.91;;;20.23;68.04
7532;BME280;3807;49.030;8.714;2023-05-23T04:23:07;99251.75;;;20.26;67.65
7532;BME280;3807;49.030;8.714;2023-05-23T04:25:32;99241.66;;;20.22;67.97
7532;BME280;3807;49.030;8.714;2023-05-23T04:27:58;99248.22;;;20.15;67.96
7532;BME280;3807;49.030;8.714;2023-05-23T04:30:25;99245.06;;;20.12;68.22
7532;BME280;3807;49.030;8.714;2023-05-23T04:32:50;99250.22;;;20.12;68.15
7532;BME280;3807;49.030;8.714;2023-05-23T04:35:16;99259.13;;;20.08;68.48
7532;BME280;3807;49.030;8.714;2023-05-23T04:37:41;99254.53;;;20.11;68.37
7532;BME280;3807;49.030;8.714;2023-05-23T04:40:07;99247.88;;;20.20;67.88
7532;BME280;3807;49.030;8.714;2023-05-23T04:42:33;99260.56;;;20.12;68.07
7532;BME280;3807;49.030;8.714;2023-05-23T04:44:58;99265.47;;;20.15;68.24
7532;BME280;3807;49.030;8.714;2023-05-23T04:47:26;99267.38;;;20.13;68.11
7532;BME280;3807;49.030;8.714;2023-05-23T04:49:53;99268.16;;;20.02;68.65
7532;BME280;3807;49.030;8.714;2023-05-23T04:52:19;99272.00;;;19.96;68.88
7532;BME280;3807;49.030;8.714;2023-05-23T04:54:44;99275.78;;;20.04;68.48
7532;BME280;3807;49.030;8.714;2023-05-23T04:57:11;99268.03;;;20.04;68.54
7532;BME280;3807;49.030;8.714;2023-05-23T04:59:37;99276.75;;;20.03;68.43
7532;BME280;3807;49.030;8.714;2023-05-23T05:02:02;99276.97;;;19.99;68.67
7532;BME280;3807;49.030;8.714;2023-05-23T05:04:28;99283.16;;;19.97;68.90
7532;BME280;3807;49.030;8.714;2023-05-23T05:06:53;99275.53;;;19.95;68.83
7532;BME280;3807;49.030;8.714;2023-05-23T05:09:18;99285.91;;;20.07;68.49
7532;BME280;3807;49.030;8.714;2023-05-23T05:11:44;99277.69;;;20.02;68.44
7532;BME280;3807;49.030;8.714;2023-05-23T05:14:09;99277.69;;;20.02;68.60
7532;BME280;3807;49.030;8.714;2023-05-23T05:16:34;99285.19;;;20.05;68.52
7532;BME280;3807;49.030;8.714;2023-05-23T05:19:00;99277.56;;;20.03;68.33
7532;BME280;3807;49.030;8.714;2023-05-23T05:21:25;99285.28;;;19.92;68.88
7532;BME280;3807;49.030;8.714;2023-05-23T05:23:51;99286.69;;;19.96;68.83
7532;BME280;3807;49.030;8.714;2023-05-23T05:26:16;99283.59;;;19.91;69.07
7532;BME280;3807;49.030;8.714;2023-05-23T05:28:42;99286.56;;;19.97;68.69
7532;BME280;3807;49.030;8.714;2023-05-23T05:31:07;99284.13;;;19.96;68.75
7532;BME280;3807;49.030;8.714;2023-05-23T05:33:34;99286.91;;;19.93;68.81
7532;BME280;3807;49.030;8.714;2023-05-23T05:36:05;99292.94;;;20.05;68.29
7532;BME280;3807;49.030;8.714;2023-05-23T05:38:31;99297.16;;;19.94;68.79
7532;BME280;3807;49.030;8.714;2023-05-23T05:40:56;99297.59;;;19.88;69.08
7532;BME280;3807;49.030;8.714;2023-05-23T05:43:22;99298.00;;;19.95;68.77
7532;BME280;3807;49.030;8.714;2023-05-23T05:45:47;99294.81;;;19.91;68.68
7532;BME280;3807;49.030;8.714;2023-05-23T05:48:13;99306.56;;;19.95;68.60
7532;BME280;3807;49.030;8.714;2023-05-23T05:50:38;99308.25;;;19.84;69.10
7532;BME280;3807;49.030;8.714;2023-05-23T05:53:03;99308.25;;;19.84;69.24
7532;BME280;3807;49.030;8.714;2023-05-23T05:55:29;99308.19;;;19.72;69.53
7532;BME280;3807;49.030;8.714;2023-05-23T05:57:54;99308.59;;;19.79;69.69
7532;BME280;3807;49.030;8.714;2023-05-23T06:00:20;99317.63;;;19.73;69.62
7532;BME280;3807;49.030;8.714;2023-05-23T06:02:46;99317.00;;;19.70;69.80
7532;BME280;3807;49.030;8.714;2023-05-23T06:05:12;99320.91;;;19.75;69.51
7532;BME280;3807;49.030;8.714;2023-05-23T06:07:39;99329.78;;;19.84;69.22
7532;BME280;3807;49.030;8.714;2023-05-23T06:10:05;99331.37;;;19.74;69.59
7532;BME280;3807;49.030;8.714;2023-05-23T06:12:31;99334.56;;;19.78;69.22
7532;BME280;3807;49.030;8.714;2023-05-23T06:14:57;99329.38;;;19.78;69.26
7532;BME280;3807;49.030;8.714;2023-05-23T06:17:22;99336.31;;;19.77;69.28
7532;BME280;3807;49.030;8.714;2023-05-23T06:19:48;99338.19;;;19.75;69.30
7532;BME280;3807;49.030;8.714;2023-05-23T06:22:13;99343.34;;;19.75;69.29
7532;BME280;3807;49.030;8.714;2023-05-23T06:24:38;99348.31;;;19.78;69.28
7532;BME280;3807;49.030;8.714;2023-05-23T06:27:04;99347.78;;;19.73;69.54
7532;BME280;3807;49.030;8.714;2023-05-23T06:29:29;99355.75;;;19.70;69.67
7532;BME280;3807;49.030;8.714;2023-05-23T06:31:55;99354.63;;;19.74;69.39
7532;BME280;3807;49.030;8.714;2023-05-23T06:34:21;99358.56;;;19.67;69.66
7532;BME280;3807;49.030;8.714;2023-05-23T06:36:46;99355.53;;;19.73;69.37
7532;BME280;3807;49.030;8.714;2023-05-23T06:39:12;99364.34;;;19.70;69.55
7532;BME280;3807;49.030;8.714;2023-05-23T06:41:38;99362.81;;;19.68;69.53
7532;BME280;3807;49.030;8.714;2023-05-23T06:44:04;99372.41;;;19.66;69.56
7532;BME280;3807;49.030;8.714;2023-05-23T06:46:29;99376.94;;;19.62;69.69
7532;BME280;3807;49.030;8.714;2023-05-23T06:48:55;99373.12;;;19.68;69.43
7532;BME280;3807;49.030;8.714;2023-05-23T06:51:20;99393.28;;;19.63;69.67
7532;BME280;3807;49.030;8.714;2023-05-23T06:53:46;99383.47;;;19.68;69.12
7532;BME280;3807;49.030;8.714;2023-05-23T06:56:11;99383.81;;;19.63;69.44
7532;BME280;3807;49.030;8.714;2023-05-23T06:58:36;99393.72;;;19.57;69.52
7532;BME280;3807;49.030;8.714;2023-05-23T07:01:02;99395.97;;;19.61;69.45
7532;BME280;3807;49.030;8.714;2023-05-23T07:03:27;99399.56;;;19.59;69.40
7532;BME280;3807;49.030;8.714;2023-05-23T07:05:52;99403.62;;;19.63;69.29
7532;BME280;3807;49.030;8.714;2023-05-23T07:08:18;99400.19;;;19.62;69.33
7532;BME280;3807;49.030;8.714;2023-05-23T07:10:43;99404.53;;;19.62;69.39
7532;BME280;3807;49.030;8.714;2023-05-23T07:13:09;99409.81;;;19.73;68.83
7532;BME280;3807;49.030;8.714;2023-05-23T07:15:34;99408.56;;;19.66;69.07
7532;BME280;3807;49.030;8.714;2023-05-23T07:17:59;99417.06;;;19.68;68.86
7532;BME280;3807;49.030;8.714;2023-05-23T07:20:25;99420.03;;;19.74;68.57
7532;BME280;3807;49.030;8.714;2023-05-23T07:22:50;99419.66;;;19.68;68.88
7532;BME280;3807;49.030;8.714;2023-05-23T07:25:16;99417.06;;;19.68;68.81
7532;BME280;3807;49.030;8.714;2023-05-23T07:27:41;99423.88;;;19.69;68.73
7532;BME280;3807;49.030;8.714;2023-05-23T07:30:07;99425.09;;;19.76;68.38
7532;BME280;3807;49.030;8.714;2023-05-23T07:32:34;99416.94;;;19.69;68.57
7532;BME280;3807;49.030;8.714;2023-05-23T07:34:59;99425.84;;;19.65;68.78
7532;BME280;3807;49.030;8.714;2023-05-23T07:37:25;99426.03;;;19.62;68.87
7532;BME280;3807;49.030;8.714;2023-05-23T07:39:52;99425.75;;;19.67;68.61
7532;BME280;3807;49.030;8.714;2023-05-23T07:42:17;99422.75;;;19.60;68.97
7532;BME280;3807;49.030;8.714;2023-05-23T07:44:42;99432.13;;;19.61;68.76
7532;BME280;3807;49.030;8.714;2023-05-23T07:47:08;99434.00;;;19.72;68.40
7532;BME280;3807;49.030;8.714;2023-05-23T07:49:33;99434.94;;;19.71;68.37
7532;BME280;3807;49.030;8.714;2023-05-23T07:52:00;99436.91;;;19.67;68.39
7532;BME280;3807;49.030;8.714;2023-05-23T07:54:25;99434.84;;;19.60;68.67
7532;BME280;3807;49.030;8.714;2023-05-23T07:56:51;99435.84;;;19.70;68.34
7532;BME280;3807;49.030;8.714;2023-05-23T07:59:17;99433.59;;;19.65;68.47
7532;BME280;3807;49.030;8.714;2023-05-23T08:01:42;99432.44;;;19.69;68.26
7532;BME280;3807;49.030;8.714;2023-05-23T08:04:09;99436.25;;;19.77;67.84
7532;BME280;3807;49.030;8.714;2023-05-23T08:06:34;99440.59;;;19.76;68.01
7532;BME280;3807;49.030;8.714;2023-05-23T08:09:00;99439.56;;;19.79;67.94
7532;BME280;3807;49.030;8.714;2023-05-23T08:11:26;99434.28;;;19.80;67.93
7532;BME280;3807;49.030;8.714;2023-05-23T08:13:53;99429.69;;;19.96;67.08
7532;BME280;3807;49.030;8.714;2023-05-23T08:16:18;99440.31;;;20.05;66.37
7532;BME280;3807;49.030;8.714;2023-05-23T08:18:43;99440.41;;;20.16;66.27
7532;BME280;3807;49.030;8.714;2023-05-23T08:21:09;99433.47;;;20.16;66.00
7532;BME280;3807;49.030;8.714;2023-05-23T08:23:34;99437.75;;;20.29;65.79
7532;BME280;3807;49.030;8.714;2023-05-23T08:26:00;99448.09;;;20.29;65.80
7532;BME280;3807;49.030;8.714;2023-05-23T08:28:25;99436.63;;;20.33;65.55
7532;BME280;3807;49.030;8.714;2023-05-23T08:30:51;99445.56;;;20.40;65.32
7532;BME280;3807;49.030;8.714;2023-05-23T08:33:16;99439.72;;;20.25;65.84
7532;BME280;3807;49.030;8.714;2023-05-23T08:35:41;99450.38;;;20.33;65.54
7532;BME280;3807;49.030;8.714;2023-05-23T08:38:08;99452.87;;;20.22;66.02
7532;BME280;3807;49.030;8.714;2023-05-23T08:40:35;99458.44;;;20.29;65.82
7532;BME280;3807;49.030;8.714;2023-05-23T08:43:01;99454.03;;;20.18;66.09
7532;BME280;3807;49.030;8.714;2023-05-23T08:45:26;99459.50;;;20.26;65.74
7532;BME280;3807;49.030;8.714;2023-05-23T08:47:54;99467.97;;;20.28;65.70
7532;BME280;3807;49.030;8.714;2023-05-23T08:50:20;99457.81;;;20.25;65.74
7532;BME280;3807;49.030;8.714;2023-05-23T08:52:57;99461.53;;;20.34;65.51
7532;BME280;3807;49.030;8.714;2023-05-23T08:55:29;99464.28;;;20.43;65.09
7532;BME280;3807;49.030;8.714;2023-05-23T08:57:56;99468.53;;;20.44;65.06
7532;BME280;3807;49.030;8.714;2023-05-23T09:00:24;99462.56;;;20.31;65.39
7532;BME280;3807;49.030;8.714;2023-05-23T09:02:49;99463.56;;;20.17;65.71
7532;BME280;3807;49.030;8.714;2023-05-23T09:05:15;99474.94;;;20.15;65.99
7532;BME280;3807;49.030;8.714;2023-05-23T09:07:44;99467.75;;;20.31;65.46
7532;BME280;3807;49.030;8.714;2023-05-23T09:10:11;99473.94;;;20.29;65.29
7532;BME280;3807;49.030;8.714;2023-05-23T09:12:37;99475.87;;;20.38;65.11
7532;BME280;3807;49.030;8.714;2023-05-23T09:15:04;99479.09;;;20.41;64.98
7532;BME280;3807;49.030;8.714;2023-05-23T09:17:30;99482.09;;;20.35;65.17
7532;BME280;3807;49.030;8.714;2023-05-23T09:19:57;99484.53;;;20.50;64.69
7532;BME280;3807;49.030;8.714;2023-05-23T09:22:23;99477.44;;;20.40;64.96
7532;BME280;3807;49.030;8.714;2023-05-23T09:24:55;99476.25;;;20.57;64.38
7532;BME280;3807;49.030;8.714;2023-05-23T09:27:21;99477.09;;;20.58;64.45
7532;BME280;3807;49.030;8.714;2023-05-23T09:29:47;99479.66;;;20.58;64.39
7532;BME280;3807;49.030;8.714;2023-05-23T09:32:14;99485.75;;;20.57;64.43
7532;BME280;3807;49.030;8.714;2023-05-23T09:34:57;99480.72;;;20.42;64.78
7532;BME280;3807;49.030;8.714;2023-05-23T09:37:30;99484.25;;;20.54;64.42
7532;BME280;3807;49.030;8.714;2023-05-23T09:40:02;99479.88;;;20.55;64.33
7532;BME280;3807;49.030;8.714;2023-05-23T09:42:31;99481.19;;;20.60;64.26
7532;BME280;3807;49.030;8.714;2023-05-23T09:44:58;99486.97;;;20.64;64.01
7532;BME280;3807;49.030;8.714;2023-05-23T09:47:24;99491.84;;;20.68;63.94
7532;BME280;3807;49.030;8.714;2023-05-23T09:49:50;99490.66;;;20.49;64.32
7532;BME280;3807;49.030;8.714;2023-05-23T09:52:15;99484.88;;;20.45;63.94
7532;BME280;3807;49.030;8.714;2023-05-23T09:54:42;99487.22;;;20.61;63.92
7532;BME280;3807;49.030;8.714;2023-05-23T09:57:11;99485.31;;;20.63;64.12
7532;BME280;3807;49.030;8.714;2023-05-23T09:59:39;99487.34;;;20.70;63.74
7532;BME280;3807;49.030;8.714;2023-05-23T10:02:12;99483.56;;;20.63;64.26
7532;BME280;3807;49.030;8.714;2023-05-23T10:04:40;99483.72;;;20.73;63.80
7532;BME280;3807;49.030;8.714;2023-05-23T10:07:27;99481.75;;;20.77;63.79
7532;BME280;3807;49.030;8.714;2023-05-23T10:09:59;99478.59;;;20.84;63.43
7532;BME280;3807;49.030;8.714;2023-05-23T10:12:56;99474.94;;;20.87;63.29
7532;BME280;3807;49.030;8.714;2023-05-23T10:15:26;99481.91;;;20.86;63.15
7532;BME280;3807;49.030;8.714;2023-05-23T10:18:15;99478.16;;;21.02;62.86
7532;BME280;3807;49.030;8.714;2023-05-23T10:20:42;99475.09;;;20.97;62.87
7532;BME280;3807;49.030;8.714;2023-05-23T10:23:12;99480.97;;;20.99;62.26
7532;BME280;3807;49.030;8.714;2023-05-23T10:25:38;99480.75;;;21.02;62.50
7532;BME280;3807;49.030;8.714;2023-05-23T10:28:05;99476.16;;;20.94;61.87
7532;BME280;3807;49.030;8.714;2023-05-23T10:30:31;99479.34;;;20.98;61.80
7532;BME280;3807;49.030;8.714;2023-05-23T10:32:56;99482.41;;;21.03;62.41
7532;BME280;3807;49.030;8.714;2023-05-23T10:35:44;99486.41;;;20.96;62.58
7532;BME280;3807;49.030;8.714;2023-05-23T10:41:15;99484.91;;;21.15;60.72
7532;BME280;3807;49.030;8.714;2023-05-23T10:46:58;99491.78;;;21.28;61.34
7532;BME280;3807;49.030;8.714;2023-05-23T10:49:41;99486.47;;;21.29;61.62
7532;BME280;3807;49.030;8.714;2023-05-23T10:52:08;99483.91;;;21.40;60.15
7532;BME280;3807;49.030;8.714;2023-05-23T10:54:47;99484.75;;;21.52;59.62
7532;BME280;3807;49.030;8.714;2023-05-23T10:57:16;99477.00;;;21.52;59.16
7532;BME280;3807;49.030;8.714;2023-05-23T10:59:42;99469.81;;;21.67;59.32
7532;BME280;3807;49.030;8.714;2023-05-23T11:02:14;99473.69;;;21.73;59.17
7532;BME280;3807;49.030;8.714;2023-05-23T11:04:40;99482.28;;;21.73;58.84
7532;BME280;3807;49.030;8.714;2023-05-23T11:07:30;99481.13;;;21.66;60.01
7532;BME280;3807;49.030;8.714;2023-05-23T11:10:12;99480.41;;;21.64;60.31
7532;BME280;3807;49.030;8.714;2023-05-23T11:12:42;99479.69;;;21.73;58.85
7532;BME280;3807;49.030;8.714;2023-05-23T11:20:14;99486.88;;;21.92;59.58
7532;BME280;3807;49.030;8.714;2023-05-23T11:22:52;99486.19;;;21.90;59.51
7532;BME280;3807;49.030;8.714;2023-05-23T11:25:18;99482.16;;;21.97;59.53
7532;BME280;3807;49.030;8.714;2023-05-23T11:27:45;99482.03;;;21.99;59.62
7532;BME280;3807;49.030;8.714;2023-05-23T11:30:17;99486.41;;;21.87;59.43
7532;BME280;3807;49.030;8.714;2023-05-23T11:32:50;99489.13;;;21.97;59.52
7532;BME280;3807;49.030;8.714;2023-05-23T11:35:16;99480.03;;;22.02;59.54
7532;BME280;3807;49.030;8.714;2023-05-23T11:37:42;99483.44;;;22.03;59.54
7532;BME280;3807;49.030;8.714;2023-05-23T11:40:34;99475.91;;;22.11;59.14
7532;BME280;3807;49.030;8.714;2023-05-23T11:43:02;99474.47;;;22.29;58.81
7532;BME280;3807;49.030;8.714;2023-05-23T11:45:28;99478.13;;;22.27;58.79
7532;BME280;3807;49.030;8.714;2023-05-23T11:47:55;99472.78;;;22.40;58.54
7532;BME280;3807;49.030;8.714;2023-05-23T11:50:21;99476.16;;;22.51;58.20
7532;BME280;3807;49.030;8.714;2023-05-23T11:52:47;99473.44;;;22.53;58.19
7532;BME280;3807;49.030;8.714;2023-05-23T11:55:19;99468.00;;;22.56;58.44
7532;BME280;3807;49.030;8.714;2023-05-23T11:57:45;99468.25;;;22.53;58.05
7532;BME280;3807;49.030;8.714;2023-05-23T12:00:11;99467.25;;;22.65;57.88
7532;BME280;3807;49.030;8.714;2023-05-23T12:02:41;99465.59;;;22.64;56.95
7532;BME280;3807;49.030;8.714;2023-05-23T12:05:11;99467.72;;;22.70;56.27
7532;BME280;3807;49.030;8.714;2023-05-23T12:07:47;99471.00;;;22.72;56.84
7532;BME280;3807;49.030;8.714;2023-05-23T12:10:17;99467.87;;;22.57;58.03
7532;BME280;3807;49.030;8.714;2023-05-23T12:12:43;99473.44;;;22.53;58.22
7532;BME280;3807;49.030;8.714;2023-05-23T12:15:09;99474.94;;;22.55;58.73
7532;BME280;3807;49.030;8.714;2023-05-23T12:17:43;99482.25;;;22.62;57.99
7532;BME280;3807;49.030;8.714;2023-05-23T12:20:10;99478.22;;;22.69;58.32
7532;BME280;3807;49.030;8.714;2023-05-23T12:22:36;99468.41;;;22.72;58.06
7532;BME280;3807;49.030;8.714;2023-05-23T12:25:01;99481.03;;;22.66;57.81
7532;BME280;3807;49.030;8.714;2023-05-23T12:27:28;99473.72;;;22.71;57.38
7532;BME280;3807;49.030;8.714;2023-05-23T12:30:14;99478.13;;;22.59;57.83
7532;BME280;3807;49.030;8.714;2023-05-23T12:32:42;99470.50;;;22.78;57.54
7532;BME280;3807;49.030;8.714;2023-05-23T12:35:09;99478.28;;;22.78;58.04
7532;BME280;3807;49.030;8.714;2023-05-23T12:37:55;99479.00;;;22.80;58.00
7532;BME280;3807;49.030;8.714;2023-05-23T12:40:20;99470.34;;;22.80;58.26
7532;BME280;3807;49.030;8.714;2023-05-23T12:42:53;99466.41;;;22.97;57.62
7532;BME280;3807;49.030;8.714;2023-05-23T12:45:21;99464.91;;;22.83;57.69
7532;BME280;3807;49.030;8.714;2023-05-23T12:47:47;99476.25;;;22.82;56.99
7532;BME280;3807;49.030;8.714;2023-05-23T12:50:12;99467.19;;;22.76;56.82
7532;BME280;3807;49.030;8.714;2023-05-23T12:52:38;99465.59;;;22.96;55.96
7532;BME280;3807;49.030;8.714;2023-05-23T12:55:05;99466.63;;;23.05;56.83
7532;BME280;3807;49.030;8.714;2023-05-23T12:57:33;99467.03;;;23.10;56.58
7532;BME280;3807;49.030;8.714;2023-05-23T12:59:58;99460.72;;;23.03;56.75
7532;BME280;3807;49.030;8.714;2023-05-23T13:02:24;99464.69;;;23.07;55.86
7532;BME280;3807;49.030;8.714;2023-05-23T13:04:49;99455.00;;;23.09;56.72
7532;BME280;3807;49.030;8.714;2023-05-23T13:07:15;99456.09;;;23.06;56.28
7532;BME280;3807;49.030;8.714;2023-05-23T13:09:40;99452.47;;;23.19;56.19
7532;BME280;3807;49.030;8.714;2023-05-23T13:12:05;99450.81;;;23.18;56.15
7532;BME280;3807;49.030;8.714;2023-05-23T13:14:31;99450.38;;;23.13;55.67
7532;BME280;3807;49.030;8.714;2023-05-23T13:16:56;99448.03;;;23.30;55.89
7532;BME280;3807;49.030;8.714;2023-05-23T13:19:21;99451.22;;;23.44;55.59
7532;BME280;3807;49.030;8.714;2023-05-23T13:21:47;99452.00;;;23.35;55.83
7532;BME280;3807;49.030;8.714;2023-05-23T13:24:12;99453.25;;;23.40;55.04
7532;BME280;3807;49.030;8.714;2023-05-23T13:26:37;99449.41;;;23.35;56.10
7532;BME280;3807;49.030;8.714;2023-05-23T13:29:04;99453.56;;;23.47;55.24
7532;BME280;3807;49.030;8.714;2023-05-23T13:31:29;99454.00;;;23.52;55.41
7532;BME280;3807;49.030;8.714;2023-05-23T13:33:54;99457.00;;;23.47;55.49
7532;BME280;3807;49.030;8.714;2023-05-23T13:36:20;99456.84;;;23.49;55.85
7532;BME280;3807;49.030;8.714;2023-05-23T13:38:46;99457.84;;;23.58;55.29